sensor_id;sensor_type;location;lat;lon;timestamp;pressure;altitude;pressure_sealevel;temperature;humidity
48200;BME280;33990;44.602;10.976;2023-02-28T00:01:25;101636.56;;;16.63;41.14
48200;BME280;33990;44.602;10.976;2023-02-28T00:03:54;101637.50;;;16.62;41.09
48200;BME280;33990;44.602;10.976;2023-02-28T00:06:21;101627.69;;;16.62;41.18
48200;BME280;33990;44.602;10.976;2023-02-28T00:08:49;101628.63;;;16.61;41.33
48200;BME280;33990;44.602;10.976;2023-02-28T00:11:16;101628.63;;;16.61;41.23
48200;BME280;33990;44.602;10.976;2023-02-28T00:13:46;101628.63;;;16.61;41.36
48200;BME280;33990;44.602;10.976;2023-02-28T00:16:19;101634.00;;;16.61;41.23
48200;BME280;33990;44.602;10.976;2023-02-28T00:18:47;101632.25;;;16.60;41.18
48200;BME280;33990;44.602;10.976;2023-02-28T00:21:15;101633.09;;;16.61;41.05
48200;BME280;33990;44.602;10.976;2023-02-28T00:23:43;101631.31;;;16.61;41.24
48200;BME280;33990;44.602;10.976;2023-02-28T00:26:11;101629.56;;;16.60;41.18
48200;BME280;33990;44.602;10.976;2023-02-28T00:28:42;101635.78;;;16.61;41.06
48200;BME280;33990;44.602;10.976;2023-02-28T00:31:10;101631.31;;;16.61;41.23
48200;BME280;33990;44.602;10.976;2023-02-28T00:33:37;101634.06;;;16.60;41.19
48200;BME280;33990;44.602;10.976;2023-02-28T00:36:09;101637.59;;;16.60;41.15
48200;BME280;33990;44.602;10.976;2023-02-28T00:38:38;101629.56;;;16.60;41.24
48200;BME280;33990;44.602;10.976;2023-02-28T00:41:08;101634.91;;;16.60;41.17
48200;BME280;33990;44.602;10.976;2023-02-28T00:43:39;101634.91;;;16.60;41.05
48200;BME280;33990;44.602;10.976;2023-02-28T00:46:07;101637.59;;;16.60;41.31
48200;BME280;33990;44.602;10.976;2023-02-28T00:48:35;101632.25;;;16.60;41.14
48200;BME280;33990;44.602;10.976;2023-02-28T00:51:03;101643.78;;;16.61;41.31
48200;BME280;33990;44.602;10.976;2023-02-28T00:53:31;101642.94;;;16.60;41.10
48200;BME280;33990;44.602;10.976;2023-02-28T00:55:59;101653.63;;;16.60;41.07
48200;BME280;33990;44.602;10.976;2023-02-28T00:58:27;101642.09;;;16.60;41.26
48200;BME280;33990;44.602;10.976;2023-02-28T01:00:54;101653.63;;;16.60;41.06
48200;BME280;33990;44.602;10.976;2023-02-28T01:03:22;101652.78;;;16.60;41.40
48200;BME280;33990;44.602;10.976;2023-02-28T01:05:50;101651.91;;;16.59;41.16
48200;BME280;33990;44.602;10.976;2023-02-28T01:08:17;101651.91;;;16.59;41.19
48200;BME280;33990;44.602;10.976;2023-02-28T01:10:45;101650.97;;;16.60;41.12
48200;BME280;33990;44.602;10.976;2023-02-28T01:13:12;101642.09;;;16.60;41.07
48200;BME280;33990;44.602;10.976;2023-02-28T01:15:49;101652.78;;;16.60;41.32
48200;BME280;33990;44.602;10.976;2023-02-28T01:18:19;101644.88;;;16.58;41.22
48200;BME280;33990;44.602;10.976;2023-02-28T01:20:46;101651.06;;;16.59;40.96
48200;BME280;33990;44.602;10.976;2023-02-28T01:23:15;101642.19;;;16.58;41.13
48200;BME280;33990;44.602;10.976;2023-02-28T01:25:43;101638.66;;;16.58;41.28
48200;BME280;33990;44.602;10.976;2023-02-28T01:28:10;101628.81;;;16.58;41.23
48200;BME280;33990;44.602;10.976;2023-02-28T01:30:37;101635.97;;;16.58;41.15
48200;BME280;33990;44.602;10.976;2023-02-28T01:33:06;101634.16;;;16.58;40.98
48200;BME280;33990;44.602;10.976;2023-02-28T01:35:34;101640.47;;;16.57;41.11
48200;BME280;33990;44.602;10.976;2023-02-28T01:38:03;101644.88;;;16.58;41.13
48200;BME280;33990;44.602;10.976;2023-02-28T01:40:47;101649.34;;;16.58;41.11
48200;BME280;33990;44.602;10.976;2023-02-28T01:43:28;101650.22;;;16.58;41.22
48200;BME280;33990;44.602;10.976;2023-02-28T01:45:57;101644.00;;;16.58;41.23
48200;BME280;33990;44.602;10.976;2023-02-28T01:48:27;101649.34;;;16.58;41.23
48200;BME280;33990;44.602;10.976;2023-02-28T01:51:00;101647.53;;;16.58;41.21
48200;BME280;33990;44.602;10.976;2023-02-28T01:53:35;101647.53;;;16.58;41.21
48200;BME280;33990;44.602;10.976;2023-02-28T01:56:07;101645.81;;;16.57;41.08
48200;BME280;33990;44.602;10.976;2023-02-28T01:58:36;101644.00;;;16.58;41.26
48200;BME280;33990;44.602;10.976;2023-02-28T02:01:04;101648.50;;;16.57;40.88
48200;BME280;33990;44.602;10.976;2023-02-28T02:03:35;101650.22;;;16.58;41.13
48200;BME280;33990;44.602;10.976;2023-02-28T02:06:03;101639.59;;;16.56;40.95
48200;BME280;33990;44.602;10.976;2023-02-28T02:08:30;101636.91;;;16.56;41.08
48200;BME280;33990;44.602;10.976;2023-02-28T02:11:01;101636.91;;;16.56;41.04
48200;BME280;33990;44.602;10.976;2023-02-28T02:16:45;101634.25;;;16.56;41.04
48200;BME280;33990;44.602;10.976;2023-02-28T02:27:28;101623.66;;;16.55;40.96
48200;BME280;33990;44.602;10.976;2023-02-28T02:35:15;101619.16;;;16.55;40.88
48200;BME280;33990;44.602;10.976;2023-02-28T02:43:38;101624.50;;;16.55;40.81
48200;BME280;33990;44.602;10.976;2023-02-28T02:46:25;101629.00;;;16.55;40.78
48200;BME280;33990;44.602;10.976;2023-02-28T02:48:55;101631.69;;;16.55;40.90
48200;BME280;33990;44.602;10.976;2023-02-28T02:51:24;101636.16;;;16.54;40.63
48200;BME280;33990;44.602;10.976;2023-02-28T02:54:02;101637.97;;;16.54;40.77
48200;BME280;33990;44.602;10.976;2023-02-28T02:56:33;101638.84;;;16.54;40.76
48200;BME280;33990;44.602;10.976;2023-02-28T02:59:07;101640.53;;;16.55;40.69
48200;BME280;33990;44.602;10.976;2023-02-28T03:01:37;101642.38;;;16.55;40.80
48200;BME280;33990;44.602;10.976;2023-02-28T03:04:10;101641.50;;;16.54;40.71
48200;BME280;33990;44.602;10.976;2023-02-28T03:06:38;101640.66;;;16.54;40.71
48200;BME280;33990;44.602;10.976;2023-02-28T03:09:06;101635.31;;;16.54;40.68
48200;BME280;33990;44.602;10.976;2023-02-28T03:11:35;101637.97;;;16.54;40.79
48200;BME280;33990;44.602;10.976;2023-02-28T03:14:20;101639.81;;;16.53;40.98
48200;BME280;33990;44.602;10.976;2023-02-28T03:17:13;101640.66;;;16.54;40.79
48200;BME280;33990;44.602;10.976;2023-02-28T03:25:20;101641.63;;;16.53;40.94
48200;BME280;33990;44.602;10.976;2023-02-28T03:30:24;101649.63;;;16.53;40.76
48200;BME280;33990;44.602;10.976;2023-02-28T03:32:59;101650.50;;;16.53;40.90
48200;BME280;33990;44.602;10.976;2023-02-28T03:35:34;101643.41;;;16.52;40.64
48200;BME280;33990;44.602;10.976;2023-02-28T03:38:12;101653.16;;;16.53;40.75
48200;BME280;33990;44.602;10.976;2023-02-28T03:40:44;101652.31;;;16.53;40.63
48200;BME280;33990;44.602;10.976;2023-02-28T03:43:19;101655.84;;;16.53;40.55
48200;BME280;33990;44.602;10.976;2023-02-28T03:45:50;101645.22;;;16.52;40.78
48200;BME280;33990;44.602;10.976;2023-02-28T03:48:23;101647.03;;;16.51;40.81
48200;BME280;33990;44.602;10.976;2023-02-28T03:50:55;101658.59;;;16.52;40.75
48200;BME280;33990;44.602;10.976;2023-02-28T03:53:27;101653.25;;;16.52;40.70
48200;BME280;33990;44.602;10.976;2023-02-28T03:55:59;101654.97;;;16.53;40.81
48200;BME280;33990;44.602;10.976;2023-02-28T03:58:35;101650.56;;;16.52;40.72
48200;BME280;33990;44.602;10.976;2023-02-28T04:01:09;101657.72;;;16.51;40.80
48200;BME280;33990;44.602;10.976;2023-02-28T04:03:39;101659.53;;;16.51;40.57
48200;BME280;33990;44.602;10.976;2023-02-28T04:06:08;101654.19;;;16.51;40.45
48200;BME280;33990;44.602;10.976;2023-02-28T04:08:39;101656.00;;;16.50;40.72
48200;BME280;33990;44.602;10.976;2023-02-28T04:11:19;101652.50;;;16.50;40.73
